createdAt,value
2023-05-18T00:01:22.141Z,3.97
2023-05-18T00:03:50.275Z,3.95
2023-05-18T00:06:19.792Z,4.03
2023-05-18T00:08:47.866Z,3.65
2023-05-18T00:11:15.959Z,3.83
2023-05-18T00:13:51.462Z,4.00
2023-05-18T00:16:20.788Z,4.20
2023-05-18T00:18:54.687Z,4.03
2023-05-18T00:21:30.674Z,4.10
2023-05-18T00:24:01.957Z,3.90
2023-05-18T00:26:29.932Z,4.80
2023-05-18T00:29:00.398Z,4.10
2023-05-18T00:31:31.047Z,4.43
2023-05-18T00:33:59.054Z,5.88
2023-05-18T00:36:28.477Z,5.68
2023-05-18T00:38:56.533Z,5.85
2023-05-18T00:41:25.177Z,5.45
2023-05-18T00:43:53.264Z,4.97
2023-05-18T00:46:21.408Z,4.25
2023-05-18T00:48:50.791Z,4.03
2023-05-18T00:51:19.597Z,4.03
2023-05-18T00:53:49.111Z,4.60
2023-05-18T00:56:17.230Z,4.60
2023-05-18T00:58:47.785Z,4.30
2023-05-18T01:01:17.835Z,4.25
2023-05-18T01:03:45.925Z,4.03
2023-05-18T01:06:14.818Z,4.20
2023-05-18T01:08:44.013Z,4.30
2023-05-18T01:11:27.813Z,4.40
2023-05-18T01:14:02.475Z,5.60
2023-05-18T01:16:37.303Z,4.85
2023-05-18T01:19:24.508Z,4.97
2023-05-18T01:21:58.796Z,5.18
2023-05-18T01:24:36.413Z,5.30
2023-05-18T01:27:09.038Z,5.25
2023-05-18T01:29:37.595Z,5.50
2023-05-18T01:32:08.487Z,6.18
2023-05-18T01:34:36.431Z,6.07
2023-05-18T01:37:04.497Z,6.38
2023-05-18T01:39:32.569Z,6.25
2023-05-18T01:42:07.626Z,6.53
2023-05-18T01:44:42.177Z,5.45
2023-05-18T01:47:13.521Z,6.55
2023-05-18T01:49:49.116Z,5.95
2023-05-18T01:52:20.547Z,5.93
2023-05-18T01:54:55.098Z,6.18
2023-05-18T01:57:28.353Z,5.57
2023-05-18T01:59:59.998Z,5.60
2023-05-18T02:02:28.382Z,5.85
2023-05-18T02:04:56.708Z,6.07
2023-05-18T02:07:24.763Z,5.68
2023-05-18T02:09:52.778Z,6.50
2023-05-18T02:12:20.802Z,5.72
2023-05-18T02:14:48.824Z,5.35
2023-05-18T02:17:18.142Z,5.65
2023-05-18T02:19:46.134Z,5.63
2023-05-18T02:22:14.174Z,5.53
2023-05-18T02:24:42.181Z,5.70
2023-05-18T02:27:10.194Z,5.15
2023-05-18T02:29:38.213Z,5.53
2023-05-18T02:32:06.735Z,5.38
2023-05-18T02:34:38.263Z,5.38
2023-05-18T02:37:06.474Z,4.88
2023-05-18T02:39:34.524Z,5.60
2023-05-18T02:42:02.739Z,5.00
2023-05-18T02:44:30.978Z,5.40
2023-05-18T02:46:59.026Z,5.68
2023-05-18T02:49:26.996Z,5.15
2023-05-18T02:51:56.368Z,4.95
2023-05-18T02:54:24.425Z,5.25
2023-05-18T02:56:56.856Z,5.18
2023-05-18T02:59:24.965Z,5.55
2023-05-18T03:01:53.886Z,5.43
2023-05-18T03:04:25.849Z,5.63
2023-05-18T03:06:54.159Z,6.25
2023-05-18T03:09:23.662Z,5.22
2023-05-18T03:11:51.765Z,5.53
2023-05-18T03:14:19.752Z,5.45
2023-05-18T03:16:48.109Z,6.07
2023-05-18T03:19:16.364Z,5.20
2023-05-18T03:21:44.388Z,5.95
2023-05-18T03:24:14.927Z,5.95
2023-05-18T03:26:45.328Z,6.00
2023-05-18T03:29:13.715Z,7.45
2023-05-18T03:31:42.141Z,6.25
2023-05-18T03:34:10.149Z,6.15
2023-05-18T03:36:38.505Z,5.65
2023-05-18T03:39:07.572Z,5.78
2023-05-18T03:41:35.586Z,5.53
2023-05-18T03:44:05.268Z,5.70
2023-05-18T03:46:33.773Z,5.50
2023-05-18T03:49:04.832Z,5.65
2023-05-18T03:51:33.192Z,5.60
2023-05-18T03:54:01.269Z,5.43
2023-05-18T03:56:31.257Z,5.20
2023-05-18T03:59:00.211Z,5.70
2023-05-18T04:01:30.377Z,5.13
2023-05-18T04:03:58.611Z,5.75
2023-05-18T04:06:27.092Z,5.55
2023-05-18T04:08:55.271Z,5.95
2023-05-18T04:11:23.423Z,5.88
2023-05-18T04:13:52.083Z,5.15
2023-05-18T04:16:21.933Z,6.28
2023-05-18T04:18:51.567Z,6.10
2023-05-18T04:21:19.635Z,5.50
2023-05-18T04:23:49.212Z,5.80
2023-05-18T04:26:20.017Z,5.28
2023-05-18T04:28:48.238Z,6.18
2023-05-18T04:31:17.814Z,5.45
2023-05-18T04:33:48.891Z,5.18
2023-05-18T04:36:21.419Z,5.32
2023-05-18T04:38:50.855Z,5.22
2023-05-18T04:41:20.606Z,5.20
2023-05-18T04:43:50.235Z,5.10
2023-05-18T04:46:18.351Z,4.97
2023-05-18T04:48:50.138Z,5.07
2023-05-18T04:51:22.127Z,4.95
2023-05-18T04:53:51.192Z,4.88
2023-05-18T04:56:20.598Z,5.07
2023-05-18T04:58:49.166Z,4.57
2023-05-18T05:01:17.859Z,4.88
2023-05-18T05:03:46.570Z,4.88
2023-05-18T05:06:15.839Z,5.03
2023-05-18T05:08:46.498Z,4.93
2023-05-18T05:11:14.518Z,4.75
2023-05-18T05:13:42.530Z,4.28
2023-05-18T05:16:10.657Z,4.35
2023-05-18T05:18:38.730Z,4.45
2023-05-18T05:21:07.292Z,4.93
2023-05-18T05:23:35.311Z,4.10
2023-05-18T05:26:05.137Z,4.45
2023-05-18T05:28:33.192Z,4.38
2023-05-18T05:31:03.990Z,4.57
2023-05-18T05:33:32.099Z,5.20
2023-05-18T05:36:00.149Z,4.78
2023-05-18T05:38:28.120Z,4.80
2023-05-18T05:40:56.107Z,4.68
2023-05-18T05:43:25.809Z,4.25
2023-05-18T05:45:53.891Z,4.30
2023-05-18T05:48:22.061Z,4.60
2023-05-18T05:50:50.079Z,4.45
2023-05-18T05:53:19.814Z,5.13
2023-05-18T05:55:47.943Z,3.90
2023-05-18T05:58:15.944Z,4.18
2023-05-18T06:00:51.943Z,3.95
2023-05-18T06:03:20.082Z,4.38
2023-05-18T06:05:48.142Z,4.03
2023-05-18T06:08:17.025Z,4.47
2023-05-18T06:10:45.201Z,4.50
2023-05-18T06:13:13.161Z,4.78
2023-05-18T06:15:41.154Z,4.60
2023-05-18T06:18:12.197Z,4.35
2023-05-18T06:20:41.625Z,4.03
2023-05-18T06:23:09.705Z,4.40
2023-05-18T06:25:38.171Z,4.20
2023-05-18T06:28:06.430Z,3.92
2023-05-18T06:30:34.677Z,4.45
2023-05-18T06:33:02.824Z,4.25
2023-05-18T06:35:32.329Z,4.35
2023-05-18T06:38:00.638Z,4.70
2023-05-18T06:40:28.828Z,4.03
2023-05-18T06:42:56.871Z,3.85
2023-05-18T06:45:24.859Z,4.13
2023-05-18T06:47:52.935Z,4.30
2023-05-18T06:50:21.365Z,4.32
2023-05-18T06:52:51.480Z,4.70
2023-05-18T06:55:20.040Z,4.45
2023-05-18T06:57:48.069Z,4.00
2023-05-18T07:00:16.868Z,4.22
2023-05-18T07:02:45.793Z,3.95
2023-05-18T07:05:14.966Z,4.00
2023-05-18T07:07:43.036Z,4.05
2023-05-18T07:10:12.688Z,4.13
2023-05-18T07:12:40.748Z,4.50
2023-05-18T07:15:09.560Z,4.68
2023-05-18T07:17:37.637Z,4.15
2023-05-18T07:20:07.173Z,4.30
2023-05-18T07:22:35.242Z,4.03
2023-05-18T07:25:03.374Z,3.97
2023-05-18T07:27:33.274Z,4.55
2023-05-18T07:30:01.321Z,4.15
2023-05-18T07:32:29.335Z,4.13
2023-05-18T07:34:57.354Z,3.83
2023-05-18T07:37:25.998Z,4.03
2023-05-18T07:39:54.053Z,4.40
2023-05-18T07:42:22.184Z,4.22
2023-05-18T07:44:52.257Z,4.28
2023-05-18T07:47:22.232Z,4.43
2023-05-18T07:49:50.534Z,4.65
2023-05-18T07:52:18.645Z,4.15
2023-05-18T07:54:46.656Z,4.30
2023-05-18T07:57:14.751Z,4.43
2023-05-18T07:59:42.758Z,4.38
2023-05-18T08:02:12.443Z,4.50
2023-05-18T08:04:40.735Z,4.55
2023-05-18T08:07:09.032Z,4.13
2023-05-18T08:09:37.033Z,4.45
2023-05-18T08:12:05.611Z,4.32
2023-05-18T08:14:33.688Z,4.60
2023-05-18T08:17:01.752Z,4.32
2023-05-18T08:19:31.157Z,4.95
2023-05-18T08:21:59.276Z,4.45
2023-05-18T08:24:27.376Z,4.40
2023-05-18T08:26:55.399Z,4.60
2023-05-18T08:29:23.450Z,4.60
2023-05-18T08:31:52.742Z,4.65
2023-05-18T08:34:20.804Z,4.72
2023-05-18T08:36:50.350Z,4.47
2023-05-18T08:39:18.348Z,4.72
2023-05-18T08:41:55.782Z,4.85
2023-05-18T08:44:27.273Z,5.00
2023-05-18T08:46:57.000Z,4.47
2023-05-18T08:49:27.945Z,3.70
2023-05-18T08:52:01.618Z,3.90
2023-05-18T08:54:32.290Z,4.00
2023-05-18T08:57:00.558Z,4.10
2023-05-18T08:59:32.628Z,4.03
2023-05-18T09:02:01.288Z,4.20
2023-05-18T09:04:29.799Z,4.07
2023-05-18T09:07:02.641Z,4.18
2023-05-18T09:09:31.056Z,4.35
2023-05-18T09:11:59.686Z,4.07
2023-05-18T09:14:27.764Z,3.83
2023-05-18T09:16:56.425Z,3.67
2023-05-18T09:19:25.168Z,4.20
2023-05-18T09:21:53.394Z,4.53
2023-05-18T09:24:24.924Z,3.95
2023-05-18T09:26:53.176Z,4.20
2023-05-18T09:29:22.598Z,3.95
2023-05-18T09:31:51.879Z,4.07
2023-05-18T09:34:19.956Z,3.55
2023-05-18T09:36:49.507Z,3.80
2023-05-18T09:39:17.560Z,3.80
2023-05-18T09:41:46.904Z,3.83
2023-05-18T09:44:15.208Z,3.65
2023-05-18T09:46:43.250Z,3.78
2023-05-18T09:49:11.737Z,3.63
2023-05-18T09:51:40.307Z,3.50
2023-05-18T09:54:10.423Z,3.50
2023-05-18T09:56:39.754Z,3.42
2023-05-18T09:59:13.534Z,3.85
2023-05-18T10:01:57.467Z,3.67
2023-05-18T10:04:36.486Z,3.38
2023-05-18T10:07:09.944Z,3.55
2023-05-18T10:09:37.897Z,3.50
2023-05-18T10:12:12.702Z,3.08
2023-05-18T10:14:44.394Z,3.58
2023-05-18T10:17:15.652Z,3.35
2023-05-18T10:19:46.573Z,3.78
2023-05-18T10:22:17.958Z,3.85
2023-05-18T10:24:50.929Z,3.70
2023-05-18T10:27:21.858Z,3.67
2023-05-18T10:29:52.645Z,3.70
2023-05-18T10:32:24.230Z,3.38
2023-05-18T10:34:54.297Z,3.30
2023-05-18T10:37:24.591Z,3.05
2023-05-18T10:39:53.346Z,3.13
2023-05-18T10:42:23.259Z,3.20
2023-05-18T10:44:54.593Z,3.10
2023-05-18T10:47:30.485Z,3.17
2023-05-18T10:50:00.916Z,3.20
2023-05-18T10:52:32.022Z,3.17
2023-05-18T10:55:01.019Z,3.10
2023-05-18T10:57:35.902Z,2.65
2023-05-18T11:00:09.365Z,3.40
2023-05-18T11:02:40.330Z,2.83
2023-05-18T11:05:09.676Z,3.00
2023-05-18T11:07:38.279Z,2.70
2023-05-18T11:10:11.189Z,3.30
2023-05-18T11:12:39.667Z,3.00
2023-05-18T11:15:10.212Z,3.45
2023-05-18T11:17:38.291Z,3.35
2023-05-18T11:20:14.203Z,3.63
2023-05-18T11:22:48.164Z,2.67
2023-05-18T11:25:38.827Z,3.50
2023-05-18T11:28:09.718Z,3.65
2023-05-18T11:30:51.109Z,3.13
2023-05-18T11:33:24.478Z,3.05
2023-05-18T11:36:14.721Z,3.70
2023-05-18T11:38:54.466Z,2.80
2023-05-18T11:41:34.262Z,2.70
2023-05-18T11:44:18.082Z,2.80
2023-05-18T11:46:56.100Z,2.85
2023-05-18T11:49:26.300Z,2.90
2023-05-18T11:52:17.025Z,2.80
2023-05-18T11:54:47.950Z,2.85
2023-05-18T11:57:18.583Z,2.58
2023-05-18T11:59:48.108Z,3.28
2023-05-18T12:02:22.906Z,2.60
2023-05-18T12:04:54.082Z,2.70
2023-05-18T12:07:23.569Z,2.75
2023-05-18T12:09:52.160Z,2.75
2023-05-18T12:12:21.013Z,2.40
2023-05-18T12:14:56.880Z,2.97
2023-05-18T12:17:39.200Z,2.80
2023-05-18T12:20:09.271Z,2.55
2023-05-18T12:22:37.388Z,2.45
2023-05-18T12:25:05.998Z,3.03
2023-05-18T12:27:39.994Z,3.05
2023-05-18T12:30:11.886Z,2.60
2023-05-18T12:32:45.651Z,2.95
2023-05-18T12:35:13.768Z,2.90
2023-05-18T12:37:46.128Z,2.78
2023-05-18T12:40:16.394Z,2.60
2023-05-18T12:42:53.954Z,2.70
2023-05-18T12:45:24.778Z,2.90
2023-05-18T12:47:55.629Z,2.90
2023-05-18T12:50:25.072Z,2.65
2023-05-18T12:52:53.645Z,2.50
2023-05-18T12:55:22.929Z,2.60
2023-05-18T12:58:01.772Z,3.17
2023-05-18T13:00:33.884Z,3.38
2023-05-18T13:03:13.561Z,2.60
2023-05-18T13:05:44.829Z,2.88
2023-05-18T13:08:15.743Z,2.85
2023-05-18T13:10:45.732Z,3.13
2023-05-18T13:13:16.942Z,2.80
2023-05-18T13:15:45.739Z,3.13
2023-05-18T13:18:15.557Z,2.45
2023-05-18T13:20:48.282Z,2.83
2023-05-18T13:23:17.624Z,2.80
2023-05-18T13:25:46.372Z,2.90
2023-05-18T13:28:19.552Z,3.38
2023-05-18T13:30:49.116Z,2.70
2023-05-18T13:33:19.360Z,2.78
2023-05-18T13:35:50.146Z,2.50
2023-05-18T13:38:18.324Z,2.55
2023-05-18T13:40:47.009Z,3.05
2023-05-18T13:43:15.314Z,2.83
2023-05-18T13:45:44.643Z,2.33
2023-05-18T13:48:12.940Z,2.20
2023-05-18T13:50:42.535Z,2.80
2023-05-18T13:53:10.754Z,2.83
2023-05-18T13:55:38.926Z,2.80
2023-05-18T13:58:07.022Z,2.60
2023-05-18T14:00:36.456Z,2.85
2023-05-18T14:03:05.076Z,2.58
2023-05-18T14:05:33.253Z,2.70
2023-05-18T14:08:02.774Z,2.30
2023-05-18T14:10:31.252Z,2.38
2023-05-18T14:12:59.460Z,2.70
2023-05-18T14:15:27.486Z,2.97
2023-05-18T14:17:55.583Z,3.00
2023-05-18T14:20:23.737Z,2.67
2023-05-18T14:22:51.763Z,2.65
2023-05-18T14:25:21.250Z,2.97
2023-05-18T14:27:49.227Z,2.60
2023-05-18T14:30:17.286Z,2.63
2023-05-18T14:32:45.491Z,2.53
2023-05-18T14:35:13.653Z,2.47
2023-05-18T14:37:41.866Z,2.40
2023-05-18T14:40:11.036Z,2.67
2023-05-18T14:42:40.727Z,2.30
2023-05-18T14:45:10.056Z,2.38
2023-05-18T14:47:41.478Z,2.40
2023-05-18T14:50:10.100Z,2.50
2023-05-18T14:52:38.206Z,2.03
2023-05-18T14:55:06.849Z,2.35
2023-05-18T14:57:34.987Z,2.63
2023-05-18T15:00:05.108Z,2.75
2023-05-18T15:02:33.551Z,2.45
2023-05-18T15:05:01.655Z,2.58
2023-05-18T15:07:29.888Z,2.63
2023-05-18T15:09:58.087Z,2.72
2023-05-18T15:12:26.477Z,2.80
2023-05-18T15:14:54.509Z,2.60
2023-05-18T15:17:23.915Z,2.72
2023-05-18T15:19:51.998Z,2.88
2023-05-18T15:22:20.012Z,2.83
2023-05-18T15:24:48.054Z,2.90
2023-05-18T15:27:16.569Z,2.70
2023-05-18T15:29:49.249Z,3.00
2023-05-18T15:32:17.579Z,2.90
2023-05-18T15:34:47.042Z,2.72
2023-05-18T15:37:15.114Z,2.53
2023-05-18T15:39:43.066Z,3.20
2023-05-18T15:42:11.101Z,2.53
2023-05-18T15:44:39.247Z,2.65
2023-05-18T15:47:07.745Z,2.95
2023-05-18T15:49:35.870Z,2.88
2023-05-18T15:52:05.675Z,2.72
2023-05-18T15:54:33.676Z,3.05
2023-05-18T15:57:01.879Z,2.70
2023-05-18T15:59:30.131Z,2.78
2023-05-18T16:01:58.145Z,2.67
2023-05-18T16:04:26.186Z,2.63
2023-05-18T16:06:54.169Z,2.85
2023-05-18T16:09:23.596Z,2.72
2023-05-18T16:11:51.640Z,2.72
2023-05-18T16:14:19.646Z,2.92
2023-05-18T16:16:47.724Z,2.70
2023-05-18T16:19:15.998Z,2.97
2023-05-18T16:21:44.093Z,2.30
2023-05-18T16:24:12.127Z,2.55
2023-05-18T16:26:41.511Z,2.53
2023-05-18T16:29:09.834Z,2.45
2023-05-18T16:31:38.370Z,2.83
2023-05-18T16:34:06.453Z,3.15
2023-05-18T16:36:36.390Z,2.50
2023-05-18T16:39:04.643Z,3.00
2023-05-18T16:41:32.669Z,2.78
2023-05-18T16:44:02.340Z,2.30
2023-05-18T16:46:30.490Z,2.80
2023-05-18T16:48:58.642Z,2.72
2023-05-18T16:51:27.582Z,2.28
2023-05-18T16:53:55.707Z,2.90
2023-05-18T16:56:25.187Z,2.60
2023-05-18T16:58:53.863Z,2.58
2023-05-18T17:01:28.446Z,2.78
2023-05-18T17:03:57.333Z,2.90
2023-05-18T17:06:25.900Z,2.65
2023-05-18T17:08:57.986Z,3.13
2023-05-18T17:11:27.743Z,2.55
2023-05-18T17:13:57.619Z,2.45
2023-05-18T17:16:28.648Z,2.53
2023-05-18T17:18:57.726Z,2.28
2023-05-18T17:21:28.180Z,2.90
2023-05-18T17:23:56.400Z,2.80
2023-05-18T17:26:25.487Z,2.50
2023-05-18T17:28:54.165Z,2.95
2023-05-18T17:31:22.270Z,2.92
2023-05-18T17:33:51.695Z,2.95
2023-05-18T17:36:19.778Z,3.03
2023-05-18T17:38:47.987Z,2.75
2023-05-18T17:41:16.242Z,2.78
2023-05-18T17:43:44.254Z,2.90
2023-05-18T17:46:12.267Z,2.95
2023-05-18T17:48:40.786Z,2.72
2023-05-18T17:51:10.179Z,3.20
2023-05-18T17:53:42.075Z,2.95
2023-05-18T17:56:10.961Z,2.58
2023-05-18T17:58:39.729Z,3.10
2023-05-18T18:01:08.763Z,3.15
2023-05-18T18:03:37.816Z,2.92
2023-05-18T18:06:06.468Z,3.22
2023-05-18T18:08:36.723Z,3.22
2023-05-18T18:11:07.676Z,3.25
2023-05-18T18:13:37.673Z,2.85
2023-05-18T18:16:06.470Z,3.00
2023-05-18T18:18:36.604Z,3.05
2023-05-18T18:21:05.477Z,2.67
2023-05-18T18:23:35.425Z,2.55
2023-05-18T18:26:04.369Z,2.95
2023-05-18T18:28:32.933Z,3.28
2023-05-18T18:31:03.642Z,2.97
2023-05-18T18:33:32.743Z,3.03
2023-05-18T18:36:01.419Z,3.30
2023-05-18T18:38:29.765Z,2.90
2023-05-18T18:41:01.981Z,2.90
2023-05-18T18:43:30.164Z,2.90
2023-05-18T18:45:58.467Z,2.88
2023-05-18T18:48:27.267Z,2.90
2023-05-18T18:50:55.431Z,2.80
2023-05-18T18:53:23.642Z,2.80
2023-05-18T18:56:04.489Z,2.72
2023-05-18T18:58:32.576Z,2.85
2023-05-18T19:01:00.655Z,2.78
2023-05-18T19:03:29.312Z,2.90
2023-05-18T19:05:57.669Z,2.65
2023-05-18T19:08:25.817Z,2.67
2023-05-18T19:10:53.912Z,3.17
2023-05-18T19:13:23.444Z,2.72
2023-05-18T19:15:51.657Z,3.00
2023-05-18T19:18:19.849Z,3.00
2023-05-18T19:20:47.906Z,2.92
2023-05-18T19:23:16.192Z,2.65
2023-05-18T19:25:44.374Z,2.67
2023-05-18T19:28:12.411Z,2.65
2023-05-18T19:30:41.870Z,2.88
2023-05-18T19:33:09.890Z,2.60
2023-05-18T19:35:38.015Z,2.78
2023-05-18T19:38:06.099Z,2.70
2023-05-18T19:40:34.327Z,2.55
2023-05-18T19:43:05.130Z,2.80
2023-05-18T19:45:33.717Z,2.85
2023-05-18T19:48:03.483Z,3.38
2023-05-18T19:50:31.535Z,3.42
2023-05-18T19:52:59.695Z,3.40
2023-05-18T19:55:27.920Z,2.95
2023-05-18T19:57:56.016Z,2.75
2023-05-18T20:00:25.553Z,2.75
2023-05-18T20:02:53.632Z,3.03
2023-05-18T20:05:25.458Z,2.88
2023-05-18T20:07:53.544Z,2.85
2023-05-18T20:10:21.639Z,2.65
2023-05-18T20:12:49.660Z,2.90
2023-05-18T20:15:18.865Z,2.83
2023-05-18T20:17:47.012Z,3.08
2023-05-18T20:20:15.087Z,2.58
2023-05-18T20:22:44.535Z,3.30
2023-05-18T20:25:12.942Z,2.63
2023-05-18T20:27:43.384Z,3.00
2023-05-18T20:30:11.734Z,2.90
2023-05-18T20:32:39.738Z,2.88
2023-05-18T20:35:08.174Z,2.60
2023-05-18T20:37:36.169Z,2.70
2023-05-18T20:40:09.420Z,2.58
2023-05-18T20:42:40.783Z,2.65
2023-05-18T20:45:10.139Z,2.85
2023-05-18T20:47:38.261Z,2.80
2023-05-18T20:50:07.359Z,2.50
2023-05-18T20:52:35.398Z,3.03
2023-05-18T20:55:03.408Z,2.70
2023-05-18T20:57:32.891Z,2.75
2023-05-18T21:00:00.945Z,3.28
2023-05-18T21:02:29.036Z,3.08
2023-05-18T21:04:57.870Z,2.88
2023-05-18T21:07:26.028Z,2.92
2023-05-18T21:09:54.015Z,3.67
2023-05-18T21:12:22.136Z,2.70
2023-05-18T21:14:51.551Z,3.03
2023-05-18T21:17:23.156Z,2.85
2023-05-18T21:19:51.666Z,3.13
2023-05-18T21:22:19.836Z,3.28
2023-05-18T21:24:49.568Z,2.90
2023-05-18T21:27:17.845Z,2.72
2023-05-18T21:29:45.889Z,3.17
2023-05-18T21:32:15.518Z,3.03
2023-05-18T21:34:43.878Z,3.30
2023-05-18T21:37:12.205Z,2.95
2023-05-18T21:39:42.046Z,2.83
2023-05-18T21:42:10.162Z,3.47
2023-05-18T21:44:39.151Z,3.63
2023-05-18T21:47:07.420Z,3.03
2023-05-18T21:49:37.017Z,2.90
2023-05-18T21:52:06.823Z,2.88
2023-05-18T21:54:37.744Z,2.95
2023-05-18T21:57:06.201Z,3.10
2023-05-18T21:59:34.355Z,3.15
2023-05-18T22:02:02.495Z,3.20
2023-05-18T22:04:30.637Z,3.38
2023-05-18T22:07:00.737Z,3.08
2023-05-18T22:09:28.773Z,3.58
2023-05-18T22:11:57.552Z,3.05
2023-05-18T22:14:25.576Z,3.13
2023-05-18T22:16:53.718Z,3.30
2023-05-18T22:19:23.485Z,3.17
2023-05-18T22:21:52.252Z,2.90
2023-05-18T22:24:21.799Z,3.20
2023-05-18T22:26:57.433Z,3.42
2023-05-18T22:29:25.640Z,3.08
2023-05-18T22:31:53.679Z,3.00
2023-05-18T22:34:21.762Z,3.30
2023-05-18T22:36:49.747Z,2.78
2023-05-18T22:39:18.118Z,3.10
2023-05-18T22:41:47.533Z,2.85
2023-05-18T22:44:15.640Z,3.08
2023-05-18T22:46:44.062Z,3.00
2023-05-18T22:49:12.085Z,3.15
2023-05-18T22:51:40.829Z,3.03
2023-05-18T22:54:08.815Z,3.42
2023-05-18T22:56:36.825Z,3.30
2023-05-18T22:59:07.054Z,2.92
2023-05-18T23:01:37.634Z,2.95
2023-05-18T23:04:06.346Z,3.08
2023-05-18T23:06:34.565Z,3.38
2023-05-18T23:09:02.580Z,3.05
2023-05-18T23:11:34.995Z,2.90
2023-05-18T23:14:03.145Z,2.90
2023-05-18T23:16:32.647Z,3.15
2023-05-18T23:19:01.680Z,3.28
2023-05-18T23:21:31.022Z,2.90
2023-05-18T23:23:59.754Z,3.13
2023-05-18T23:26:27.846Z,3.15
2023-05-18T23:28:55.806Z,2.95
2023-05-18T23:31:23.859Z,3.17
2023-05-18T23:33:53.888Z,3.45
2023-05-18T23:36:22.997Z,3.33
2023-05-18T23:38:52.828Z,3.20
2023-05-18T23:41:21.921Z,2.70
2023-05-18T23:43:50.288Z,3.03
2023-05-18T23:46:18.927Z,3.22
2023-05-18T23:48:47.430Z,2.90
2023-05-18T23:51:18.897Z,2.80
2023-05-18T23:53:48.178Z,3.10
2023-05-18T23:56:16.861Z,3.00
2023-05-18T23:58:46.716Z,3.20
